Time;durP1;ratioP1;P1;durP2;ratioP2;P2;SDS_P1;SDS_P2;PMS_P1;PMS_P2;Temp;Humidity;BMP_temperature;BMP_pressure;BME280_temperature;BME280_humidity;BME280_pressure;Samples;Min_cycle;Max_cycle;Signal;HPM_P1;HPM_P2
2022/08/09 00:00:00;;;;;;;13.93;7.07;;;;;;;21.81;52.23;100004.16;5107287;28;20040;-27
2022/08/09 00:02:25;;;;;;;12.23;6.07;;;;;;;21.53;53.64;100012.16;5106949;28;20027;-28
2022/08/09 00:04:51;;;;;;;18.02;8.60;;;;;;;20.72;56.31;100016.66;5107025;28;20634;-29
2022/08/09 00:07:16;;;;;;;23.38;10.63;;;;;;;21.30;54.33;100011.09;5106958;28;20038;-28
2022/08/09 00:09:41;;;;;;;21.40;10.43;;;;;;;21.32;54.66;100018.97;5106071;28;20095;-29
2022/08/09 00:12:08;;;;;;;20.23;10.15;;;;;;;21.02;55.18;100010.09;5107024;28;20035;-30
2022/08/09 00:14:35;;;;;;;13.32;7.68;;;;;;;20.42;57.11;99996.91;5106752;28;20023;-30
2022/08/09 00:17:01;;;;;;;14.15;7.78;;;;;;;20.67;56.97;100009.41;5087972;28;20020;-28
2022/08/09 00:19:26;;;;;;;13.38;6.82;;;;;;;21.12;55.68;99996.41;5106475;28;20039;-29
2022/08/09 00:21:52;;;;;;;14.38;8.15;;;;;;;21.30;55.04;100002.16;5106861;28;20036;-32
2022/08/09 00:24:17;;;;;;;17.38;9.50;;;;;;;21.58;54.27;100003.97;5106844;28;20480;-28
2022/08/09 00:26:44;;;;;;;18.67;9.20;;;;;;;20.77;56.54;100013.91;5106726;28;20562;-31
2022/08/09 00:29:09;;;;;;;16.13;8.93;;;;;;;20.66;57.11;99996.97;5088205;28;20035;-29
2022/08/09 00:31:35;;;;;;;18.45;9.15;;;;;;;20.93;56.60;100006.44;5105847;28;20020;-32
2022/08/09 00:34:00;;;;;;;18.67;8.43;;;;;;;20.23;58.69;99994.13;5106836;28;20020;-29
2022/08/09 00:36:26;;;;;;;14.98;7.30;;;;;;;20.17;58.65;99995.25;5106543;28;20092;-28
2022/08/09 00:38:51;;;;;;;13.75;7.65;;;;;;;20.85;56.89;100005.16;5106619;28;20030;-28
2022/08/09 00:41:21;;;;;;;16.10;8.20;;;;;;;20.29;58.03;100003.81;5106352;28;20027;-33
2022/08/09 00:43:48;;;;;;;14.20;7.00;;;;;;;20.14;58.82;100004.75;5106006;28;20032;-28
2022/08/09 00:46:13;;;;;;;12.80;6.80;;;;;;;20.71;57.47;100004.22;5087273;28;20050;-29
2022/08/09 00:48:39;;;;;;;14.00;6.97;;;;;;;21.07;56.31;100010.06;5106405;28;20031;-29
2022/08/09 00:51:06;;;;;;;13.00;7.45;;;;;;;20.10;58.40;100016.44;5106543;28;20097;-30
2022/08/09 00:53:33;;;;;;;14.48;7.30;;;;;;;20.39;58.13;100009.13;5087677;28;20035;-28
2022/08/09 00:55:58;;;;;;;11.43;6.28;;;;;;;20.48;57.62;100007.41;5087955;28;20063;-28
2022/08/09 00:58:24;;;;;;;15.23;7.00;;;;;;;20.83;56.97;99991.88;5106458;28;20482;-28
2022/08/09 01:00:53;;;;;;;14.98;7.50;;;;;;;20.70;57.47;100014.28;5106043;28;20468;-28
2022/08/09 01:03:37;;;;;;;14.85;6.53;;;;;;;20.74;57.25;100015.31;5087735;28;20114;-31
2022/08/09 01:06:10;;;;;;;9.70;5.97;;;;;;;20.36;59.29;100009.69;5106115;28;20038;-29
2022/08/09 01:08:51;;;;;;;11.35;6.95;;;;;;;19.93;60.89;100014.94;5087748;28;20142;-28
2022/08/09 01:11:30;;;;;;;11.77;6.10;;;;;;;19.86;61.25;100006.34;5105674;28;20035;-28
2022/08/09 01:14:05;;;;;;;11.63;6.55;;;;;;;20.24;59.09;100011.97;5087857;28;20016;-31
2022/08/09 01:16:35;;;;;;;13.60;6.88;;;;;;;20.02;60.17;100021.38;5070699;28;20031;-28
2022/08/09 01:19:12;;;;;;;11.30;6.35;;;;;;;20.35;59.68;100013.50;5087111;28;20028;-31
2022/08/09 01:21:48;;;;;;;9.45;5.45;;;;;;;19.98;61.57;100014.91;5104595;28;20035;-29
2022/08/09 01:24:50;;;;;;;11.27;5.07;;;;;;;19.87;62.44;100010.66;5105702;28;20028;-28
2022/08/09 01:27:20;;;;;;;10.35;5.68;;;;;;;19.97;62.23;100002.44;5087209;28;20034;-31
2022/08/09 01:29:50;;;;;;;9.32;5.15;;;;;;;20.40;60.53;100002.63;5105375;28;20054;-32
2022/08/09 01:32:18;;;;;;;8.82;5.05;;;;;;;20.14;60.98;99993.09;5105343;28;20077;-28
2022/08/09 01:34:47;;;;;;;9.68;4.88;;;;;;;20.04;61.26;100000.25;5087422;28;20399;-29
2022/08/09 01:37:15;;;;;;;9.93;5.22;;;;;;;19.90;60.84;99996.56;5087092;28;20035;-28
2022/08/09 01:39:45;;;;;;;7.60;4.28;;;;;;;20.02;60.63;100010.53;5086926;28;20073;-34
2022/08/09 01:42:11;;;;;;;9.60;4.80;;;;;;;19.91;60.62;99998.16;5105841;28;20450;-29
2022/08/09 01:44:40;;;;;;;10.38;6.68;;;;;;;20.16;59.37;99993.63;5105341;28;20203;-30
2022/08/09 01:47:06;;;;;;;12.27;4.78;;;;;;;20.42;59.03;100003.13;5105415;28;20079;-30
2022/08/09 01:49:34;;;;;;;8.93;5.03;;;;;;;20.29;58.36;99984.84;5086948;28;20118;-28
2022/08/09 01:52:06;;;;;;;10.80;5.47;;;;;;;20.09;59.25;99987.75;5087217;28;20042;-27
2022/08/09 01:54:36;;;;;;;14.85;7.10;;;;;;;20.21;58.91;100007.94;5087175;28;20495;-29
2022/08/09 01:57:25;;;;;;;14.10;7.70;;;;;;;20.27;58.91;99997.88;5086856;28;20062;-29
2022/08/09 01:59:54;;;;;;;13.80;7.72;;;;;;;20.34;58.66;100001.03;5104936;28;20039;-28
2022/08/09 02:02:25;;;;;;;20.38;9.90;;;;;;;19.39;61.50;99980.63;5086894;28;20030;-30
2022/08/09 02:04:52;;;;;;;14.10;7.28;;;;;;;19.46;61.73;99991.94;5087008;28;20023;-27
2022/08/09 02:07:22;;;;;;;12.47;6.03;;;;;;;19.56;61.08;99975.66;5086805;28;20119;-28
2022/08/09 02:09:59;;;;;;;14.75;7.68;;;;;;;19.39;61.80;99976.03;5070390;28;20042;-29
2022/08/09 02:12:27;;;;;;;16.07;8.47;;;;;;;19.79;60.89;99989.59;5087015;28;20024;-31
2022/08/09 02:14:53;;;;;;;;;;;;;;;19.83;60.13;99990.66;5087439;28;20039;-33
2022/08/09 02:17:24;;;;;;;13.80;6.88;;;;;;;19.86;59.79;99980.06;5105214;28;19908;-28
2022/08/09 02:19:49;;;;;;;16.73;7.88;;;;;;;19.76;60.50;99987.47;5086724;28;20514;-29
2022/08/09 02:22:43;;;;;;;16.05;7.53;;;;;;;19.80;59.92;99996.66;5104746;28;20032;-32
2022/08/09 02:25:14;;;;;;;14.82;7.70;;;;;;;19.49;60.27;99991.38;5078023;28;20094;-28
2022/08/09 02:27:44;;;;;;;11.73;6.95;;;;;;;19.53;60.74;99988.94;5086498;28;20023;-28
2022/08/09 02:30:10;;;;;;;10.93;6.90;;;;;;;19.41;62.68;99992.81;5086837;28;20484;-30
2022/08/09 02:32:42;;;;;;;10.18;6.50;;;;;;;19.38;64.03;99989.84;5089296;28;20024;-28
2022/08/09 02:35:22;;;;;;;9.52;6.50;;;;;;;19.43;63.49;99984.38;5090864;28;20138;-28
2022/08/09 02:37:51;;;;;;;9.80;6.82;;;;;;;19.71;63.28;100001.81;5109238;28;20055;-29
2022/08/09 02:40:19;;;;;;;11.02;6.43;;;;;;;19.59;62.94;100002.13;5090371;28;20507;-32
2022/08/09 02:42:48;;;;;;;;;;;;;;;19.66;62.48;100008.06;5090954;28;20031;-32
2022/08/09 02:45:28;;;;;;;8.85;7.05;;;;;;;19.97;61.54;100005.16;5089638;28;19954;-29
2022/08/09 02:47:57;;;;;;;12.38;7.13;;;;;;;19.67;62.24;99998.84;5108847;28;20028;-32
2022/08/09 02:50:34;;;;;;;12.70;7.70;;;;;;;19.65;62.08;99982.06;5090152;28;20031;-28
2022/08/09 02:53:03;;;;;;;15.35;8.52;;;;;;;19.66;61.89;100002.66;5108538;28;20023;-30
2022/08/09 02:55:31;;;;;;;14.68;8.38;;;;;;;19.62;61.93;99982.66;5108167;28;20101;-32
2022/08/09 02:58:00;;;;;;;17.08;8.45;;;;;;;19.61;62.00;99978.31;5090088;28;20024;-28
2022/08/09 03:00:27;;;;;;;10.23;7.15;;;;;;;19.90;62.12;99991.16;5089987;28;20037;-29
2022/08/09 03:02:55;;;;;;;10.95;7.05;;;;;;;19.86;62.23;99990.09;5108280;28;20023;-31
2022/08/09 03:05:22;;;;;;;11.65;7.50;;;;;;;19.80;62.98;99991.22;5090218;28;20027;-30
2022/08/09 03:07:50;;;;;;;12.50;6.68;;;;;;;19.59;63.40;99975.09;5089773;28;20028;-29
2022/08/09 03:10:17;;;;;;;12.45;6.93;;;;;;;19.14;65.12;99974.25;5089927;28;20666;-30
2022/08/09 03:12:45;;;;;;;12.97;7.70;;;;;;;19.42;64.63;99982.78;5108280;28;20024;-28
2022/08/09 03:15:11;;;;;;;12.48;6.75;;;;;;;19.32;64.63;99958.50;5108077;28;20031;-30
2022/08/09 03:17:38;;;;;;;12.20;7.38;;;;;;;19.31;64.51;99970.41;5107801;28;20031;-29
2022/08/09 03:20:06;;;;;;;13.10;7.32;;;;;;;19.17;64.91;99962.09;5089558;28;20415;-28
2022/08/09 03:22:39;;;;;;;14.63;9.20;;;;;;;18.92;66.55;99955.75;5089482;28;20031;-31
2022/08/09 03:25:06;;;;;;;20.58;11.05;;;;;;;18.94;68.23;99950.88;5089684;28;20024;-32
2022/08/09 03:27:33;;;;;;;16.80;10.90;;;;;;;19.13;69.37;99955.66;5089383;28;20487;-28
2022/08/09 03:30:00;;;;;;;17.15;10.15;;;;;;;19.23;69.46;99961.78;5089207;28;20032;-28
2022/08/09 03:32:28;;;;;;;20.80;11.50;;;;;;;19.33;69.13;99960.94;5089326;28;20058;-29
2022/08/09 03:34:55;;;;;;;20.30;12.00;;;;;;;19.45;68.65;99941.66;5089100;28;20027;-28
2022/08/09 03:37:20;;;;;;;19.70;11.43;;;;;;;19.62;67.90;99941.28;5107637;28;20089;-29
2022/08/09 03:39:47;;;;;;;21.38;11.23;;;;;;;19.66;68.36;99962.06;5107149;28;20027;-31
2022/08/09 03:42:13;;;;;;;13.40;8.80;;;;;;;19.52;68.72;99961.09;5088819;28;20554;-33
2022/08/09 03:44:38;;;;;;;12.73;8.75;;;;;;;19.53;68.19;99956.47;5106390;28;20111;-28
2022/08/09 03:47:04;;;;;;;13.68;8.73;;;;;;;19.69;68.44;99976.91;5107197;28;20131;-31
2022/08/09 03:49:31;;;;;;;14.95;8.77;;;;;;;19.81;68.03;99963.06;5106860;28;20144;-28
2022/08/09 03:51:59;;;;;;;11.80;8.52;;;;;;;19.93;68.29;99974.34;5107169;28;20035;-30
2022/08/09 03:54:29;;;;;;;13.35;8.50;;;;;;;19.77;68.72;99964.72;5089208;28;20031;-27
2022/08/09 03:56:56;;;;;;;13.20;9.65;;;;;;;19.85;68.75;99983.06;5107232;28;20027;-29
2022/08/09 03:59:22;;;;;;;14.23;10.80;;;;;;;19.77;68.84;99975.53;5107180;28;20023;-35
2022/08/09 04:01:52;;;;;;;27.63;11.85;;;;;;;20.07;68.58;99985.31;5107190;28;20039;-29
2022/08/09 04:04:18;;;;;;;17.13;10.82;;;;;;;19.77;69.78;99997.19;5107091;28;20016;-28
2022/08/09 04:06:44;;;;;;;16.20;10.52;;;;;;;20.01;68.73;99986.47;5088835;28;20119;-30
2022/08/09 04:09:09;;;;;;;13.10;9.70;;;;;;;20.10;67.78;99989.34;5107179;28;20020;-27
2022/08/09 04:11:50;;;;;;;15.07;9.73;;;;;;;20.35;66.97;99991.84;5106833;28;20073;-31
2022/08/09 04:14:18;;;;;;;19.33;10.07;;;;;;;20.39;66.36;99979.34;5088595;28;20099;-29
2022/08/09 04:16:43;;;;;;;21.08;11.82;;;;;;;20.68;65.67;99997.50;5088250;28;20028;-28
2022/08/09 04:19:08;;;;;;;17.30;10.65;;;;;;;20.58;66.36;99974.03;5106880;28;20430;-29
2022/08/09 04:21:34;;;;;;;18.30;11.00;;;;;;;20.69;65.37;99980.13;5106809;28;20513;-32
2022/08/09 04:23:59;;;;;;;13.85;10.48;;;;;;;20.77;65.27;99971.34;5106885;28;20027;-31
2022/08/09 04:26:25;;;;;;;22.80;14.38;;;;;;;20.89;65.56;99989.94;5106911;28;20044;-34
2022/08/09 04:28:51;;;;;;;20.88;13.02;;;;;;;20.62;66.91;99977.78;5106549;28;20106;-28
2022/08/09 04:31:16;;;;;;;18.95;12.35;;;;;;;20.66;66.63;99976.09;5106295;28;20035;-28
2022/08/09 04:33:42;;;;;;;14.50;11.65;;;;;;;20.81;66.57;99994.06;5106389;28;20027;-34
2022/08/09 04:36:08;;;;;;;18.17;12.25;;;;;;;20.94;66.26;99995.28;5106520;28;20037;-30
2022/08/09 04:38:33;;;;;;;19.05;11.55;;;;;;;21.06;65.71;99995.69;5106447;28;20034;-29
2022/08/09 04:40:58;;;;;;;17.20;11.43;;;;;;;21.11;65.47;99986.69;5088346;28;20043;-28
2022/08/09 04:43:24;;;;;;;15.40;11.25;;;;;;;21.08;66.68;99992.66;5106380;28;20027;-34
2022/08/09 04:45:50;;;;;;;14.77;11.07;;;;;;;20.79;67.62;99968.38;5087249;28;20067;-32
2022/08/09 04:48:15;;;;;;;13.35;9.45;;;;;;;20.89;67.84;100000.78;5106217;28;20032;-30
2022/08/09 04:50:41;;;;;;;14.57;9.27;;;;;;;20.79;68.94;99988.13;5106046;28;20031;-28
2022/08/09 04:53:09;;;;;;;11.43;9.30;;;;;;;21.21;67.47;100023.72;5087882;28;20024;-32
2022/08/09 04:55:36;;;;;;;13.95;9.63;;;;;;;21.15;67.80;100003.19;5105620;28;20032;-30
2022/08/09 04:58:01;;;;;;;11.85;9.68;;;;;;;21.47;66.06;100026.91;5087584;28;20123;-33
2022/08/09 05:00:26;;;;;;;13.55;9.57;;;;;;;21.55;65.34;100009.97;5106145;28;20031;-28
2022/08/09 05:02:52;;;;;;;18.55;10.25;;;;;;;21.77;64.13;100014.81;5106106;28;20652;-29
2022/08/09 05:05:17;;;;;;;15.48;9.70;;;;;;;22.00;63.55;100023.94;5106520;28;20572;-28
2022/08/09 05:07:43;;;;;;;18.33;10.77;;;;;;;21.86;63.67;100020.38;5105712;28;20050;-29
2022/08/09 05:10:09;;;;;;;25.27;14.52;;;;;;;22.10;63.43;100022.19;5105881;28;20423;-29
2022/08/09 05:12:35;;;;;;;16.73;12.25;;;;;;;22.52;62.33;100028.56;5105695;28;20024;-28
2022/08/09 05:15:00;;;;;;;16.90;12.55;;;;;;;22.39;61.33;100011.94;5105664;28;20028;-28
2022/08/09 05:17:26;;;;;;;17.45;11.35;;;;;;;22.44;62.61;100006.41;5105921;28;20070;-30
2022/08/09 05:19:52;;;;;;;29.55;11.43;;;;;;;;;;5105867;28;20028;-30
2022/08/09 05:22:17;;;;;;;16.60;10.93;;;;;;;22.80;61.72;100018.50;5087253;28;20036;-28
2022/08/09 05:24:43;;;;;;;17.60;11.50;;;;;;;23.02;60.15;100015.09;5105992;28;20506;-29
2022/08/09 05:27:08;;;;;;;18.50;10.88;;;;;;;23.12;59.25;100014.91;5105797;28;20032;-29
2022/08/09 05:29:34;;;;;;;15.18;10.50;;;;;;;23.29;59.92;100002.56;5105275;28;20027;-31
2022/08/09 05:31:59;;;;;;;17.20;11.48;;;;;;;23.56;58.75;100018.03;5105636;28;20023;-30
2022/08/09 05:34:26;;;;;;;15.15;10.43;;;;;;;23.50;58.68;100006.47;5105623;28;20023;-31
2022/08/09 05:36:52;;;;;;;18.27;11.27;;;;;;;23.47;58.10;99991.53;5105815;28;20111;-28
2022/08/09 05:39:17;;;;;;;21.65;11.13;;;;;;;23.58;57.45;100007.63;5087069;28;20118;-28
2022/08/09 05:41:43;;;;;;;15.80;11.82;;;;;;;23.75;56.91;100020.63;5105471;28;20036;-32
2022/08/09 05:44:09;;;;;;;18.00;11.68;;;;;;;23.77;56.72;100012.97;5105207;28;20643;-29
2022/08/09 05:46:34;;;;;;;17.67;12.73;;;;;;;23.85;55.32;100001.34;5105515;28;20048;-30
2022/08/09 05:49:00;;;;;;;16.65;12.57;;;;;;;24.15;54.31;100018.03;5105482;28;20402;-28
2022/08/09 05:51:25;;;;;;;18.67;12.80;;;;;;;24.14;54.32;100000.09;5105057;28;20092;-32
2022/08/09 05:53:50;;;;;;;17.92;12.20;;;;;;;24.32;53.51;100009.97;5105555;28;20031;-28
2022/08/09 05:56:16;;;;;;;17.63;11.93;;;;;;;24.04;53.92;99991.03;5105192;28;20384;-31
2022/08/09 05:58:41;;;;;;;16.40;10.82;;;;;;;24.10;52.58;99999.91;5105484;28;20509;-29
2022/08/09 06:01:08;;;;;;;13.00;10.07;;;;;;;24.34;52.01;100005.00;5087370;28;20092;-31
2022/08/09 06:03:34;;;;;;;15.97;10.63;;;;;;;24.57;52.30;99994.88;5087353;28;20024;-29
2022/08/09 06:05:59;;;;;;;13.43;10.30;;;;;;;24.93;51.12;100015.72;5105676;28;20031;-34
2022/08/09 06:08:24;;;;;;;15.25;10.02;;;;;;;24.97;50.76;99996.81;5109497;28;20027;-30
2022/08/09 06:10:52;;;;;;;14.88;9.55;;;;;;;24.91;50.99;100004.31;5109315;28;20035;-33
2022/08/09 06:13:17;;;;;;;16.80;10.35;;;;;;;24.97;50.58;100005.00;5090502;28;20046;-31
2022/08/09 06:15:43;;;;;;;16.58;10.57;;;;;;;25.22;50.23;100004.25;5109371;28;20781;-28
2022/08/09 06:18:08;;;;;;;14.35;8.82;;;;;;;25.18;49.61;100005.97;5109122;28;20042;-28
2022/08/09 06:20:33;;;;;;;12.30;9.07;;;;;;;25.32;50.56;100010.53;5090841;28;20043;-28
2022/08/09 06:22:59;;;;;;;15.88;9.05;;;;;;;25.71;49.54;100023.25;5109021;28;20084;-29
2022/08/09 06:25:24;;;;;;;14.75;8.82;;;;;;;25.82;48.05;100012.78;5108999;28;20038;-31
2022/08/09 06:27:50;;;;;;;13.98;8.85;;;;;;;26.06;48.25;100025.97;5109144;28;20092;-32
2022/08/09 06:30:15;;;;;;;12.27;8.95;;;;;;;25.96;47.04;100029.84;5108986;28;20394;-31
2022/08/09 06:32:41;;;;;;;12.65;8.88;;;;;;;26.05;47.71;100032.56;5109228;28;20023;-28
2022/08/09 06:35:08;;;;;;;14.32;9.30;;;;;;;26.17;46.89;100023.69;5109226;28;20023;-29
2022/08/09 06:37:34;;;;;;;15.65;9.15;;;;;;;26.32;46.85;100008.75;5090252;28;20036;-30
2022/08/09 06:39:59;;;;;;;17.10;9.27;;;;;;;26.34;46.59;100012.75;5108766;28;20032;-30
2022/08/09 06:42:25;;;;;;;12.65;9.23;;;;;;;26.64;46.57;100012.81;5108676;28;20031;-30
2022/08/09 06:44:50;;;;;;;15.38;9.50;;;;;;;26.85;45.84;99993.75;5108170;28;20402;-31
2022/08/09 06:47:16;;;;;;;13.13;9.30;;;;;;;27.04;45.64;99990.56;5108787;28;20062;-31
2022/08/09 06:49:41;;;;;;;13.18;9.43;;;;;;;27.21;45.21;99989.66;5108258;28;20118;-35
2022/08/09 06:52:07;;;;;;;15.10;9.40;;;;;;;27.51;44.69;99982.22;5108790;28;20035;-29
2022/08/09 06:54:32;;;;;;;15.77;9.13;;;;;;;27.56;43.93;99992.16;5089864;28;20016;-28
2022/08/09 06:56:57;;;;;;;14.70;9.50;;;;;;;27.55;43.49;99994.09;5108405;28;20034;-31
2022/08/09 06:59:23;;;;;;;17.40;9.80;;;;;;;27.68;43.28;99981.25;5108364;28;20031;-31
2022/08/09 07:01:48;;;;;;;13.40;9.38;;;;;;;27.92;41.34;99994.28;5108369;28;20035;-28
2022/08/09 07:04:14;;;;;;;14.15;9.93;;;;;;;27.87;40.33;99986.28;5108623;28;20031;-28
2022/08/09 07:06:40;;;;;;;17.25;9.52;;;;;;;28.12;39.89;99989.91;5108255;28;20547;-28
2022/08/09 07:09:05;;;;;;;13.23;9.32;;;;;;;28.17;40.21;99992.41;5108421;28;20031;-30
2022/08/09 07:11:30;;;;;;;14.52;9.98;;;;;;;28.43;40.20;99991.31;5107876;28;20031;-31
2022/08/09 07:13:56;;;;;;;12.88;9.07;;;;;;;28.72;40.24;100001.31;5107949;28;20945;-30
2022/08/09 07:16:22;;;;;;;14.43;9.55;;;;;;;29.06;38.19;99993.75;5089532;28;20131;-30
2022/08/09 07:18:47;;;;;;;14.60;11.18;;;;;;;29.21;38.48;99998.56;5089614;28;20517;-30
2022/08/09 07:21:13;;;;;;;14.18;10.63;;;;;;;29.36;38.54;99996.22;5108024;28;20032;-33
2022/08/09 07:23:40;;;;;;;15.38;11.85;;;;;;;29.40;38.27;99992.47;5107628;28;20028;-30
2022/08/09 07:26:06;;;;;;;19.13;12.13;;;;;;;29.67;35.89;99992.00;5108017;28;20033;-28
2022/08/09 07:28:31;;;;;;;17.75;13.45;;;;;;;29.40;36.74;99970.50;5107774;28;20031;-31
2022/08/09 07:30:57;;;;;;;17.75;14.10;;;;;;;29.70;35.98;99988.56;5089619;28;20059;-29
2022/08/09 07:33:22;;;;;;;19.48;13.77;;;;;;;29.90;35.33;99995.84;5107569;28;20035;-34
2022/08/09 07:35:48;;;;;;;21.08;13.35;;;;;;;30.19;34.06;99988.34;5107720;28;20028;-28
2022/08/09 07:38:13;;;;;;;14.57;11.82;;;;;;;30.27;33.18;99983.84;5107775;28;20047;-32
2022/08/09 07:40:38;;;;;;;19.85;12.38;;;;;;;30.34;34.75;99995.88;5089404;28;20032;-32
2022/08/09 07:43:04;;;;;;;21.98;13.90;;;;;;;30.32;33.61;99980.84;5107509;28;20031;-28
2022/08/09 07:45:30;;;;;;;16.80;12.80;;;;;;;30.34;33.83;99979.38;5106869;28;20507;-30
2022/08/09 07:47:58;;;;;;;14.95;11.25;;;;;;;30.67;31.42;100008.47;5107886;28;20038;-30
2022/08/09 07:50:26;;;;;;;13.80;10.38;;;;;;;30.77;30.20;100013.44;5089462;28;20038;-28
2022/08/09 07:52:52;;;;;;;15.98;10.00;;;;;;;30.92;30.82;100000.03;5089007;28;20131;-32
2022/08/09 07:55:18;;;;;;;16.15;9.48;;;;;;;30.87;31.72;100014.03;5107335;28;20120;-32
2022/08/09 07:57:47;;;;;;;12.98;9.07;;;;;;;30.97;30.98;100010.75;5107226;28;20525;-28
2022/08/09 08:00:17;;;;;;;12.05;7.95;;;;;;;31.07;30.19;100010.19;5089051;28;20183;-29
2022/08/09 08:02:43;;;;;;;10.75;7.50;;;;;;;31.15;30.50;100005.66;5088756;28;20024;-32
2022/08/09 08:05:09;;;;;;;12.13;7.40;;;;;;;31.16;30.87;100001.72;5107346;28;20036;-28
2022/08/09 08:07:35;;;;;;;14.40;7.97;;;;;;;31.31;29.56;99986.34;5088130;28;20024;-35
2022/08/09 08:10:00;;;;;;;12.52;7.70;;;;;;;31.33;29.96;99986.78;5106820;28;20116;-31
2022/08/09 08:12:26;;;;;;;13.43;8.18;;;;;;;31.57;29.90;99986.50;5106921;28;20027;-29
2022/08/09 08:14:51;;;;;;;10.20;7.03;;;;;;;31.59;30.50;99975.94;5107080;28;20038;-28
2022/08/09 08:17:17;;;;;;;10.10;7.25;;;;;;;31.68;30.72;99985.94;5106833;28;20092;-29
2022/08/09 08:19:42;;;;;;;12.23;7.38;;;;;;;31.69;30.05;99987.50;5107141;28;20031;-31
2022/08/09 08:22:08;;;;;;;9.10;7.15;;;;;;;32.03;29.83;99981.09;5106993;28;20063;-30
2022/08/09 08:24:33;;;;;;;12.68;7.15;;;;;;;32.00;30.26;99968.06;5106954;28;20052;-32
2022/08/09 08:26:58;;;;;;;10.25;6.65;;;;;;;31.96;29.81;99967.16;5106850;28;20039;-31
2022/08/09 08:29:24;;;;;;;9.60;6.93;;;;;;;32.09;29.26;99969.78;5106160;28;20026;-30
2022/08/09 08:31:50;;;;;;;9.93;6.53;;;;;;;32.14;30.65;99959.25;5106738;28;20055;-36
2022/08/09 08:34:15;;;;;;;10.43;6.25;;;;;;;32.73;28.40;99968.09;5106595;28;20054;-30
2022/08/09 08:36:41;;;;;;;10.85;7.00;;;;;;;32.92;28.71;99958.13;5106680;28;20085;-28
2022/08/09 08:39:06;;;;;;;10.27;6.18;;;;;;;32.98;27.77;99945.59;5106328;28;20026;-39
2022/08/09 08:41:32;;;;;;;9.90;6.38;;;;;;;32.86;28.87;99941.06;5106153;28;20409;-29
2022/08/09 08:43:58;;;;;;;12.18;6.65;;;;;;;32.94;27.79;99950.25;5106357;28;20031;-30
2022/08/09 08:46:38;;;;;;;10.50;6.15;;;;;;;33.19;27.37;99947.84;5105904;28;20051;-32
2022/08/09 08:49:07;;;;;;;9.93;6.05;;;;;;;33.25;27.25;99923.47;5106298;28;20032;-31
2022/08/09 08:51:33;;;;;;;9.20;5.95;;;;;;;33.27;26.35;99932.16;5087214;28;20024;-29
2022/08/09 08:54:05;;;;;;;8.45;6.05;;;;;;;33.47;27.60;99932.78;5106052;28;20023;-34
2022/08/09 08:56:36;;;;;;;8.80;5.25;;;;;;;33.31;26.17;99908.13;5087662;28;20027;-32
2022/08/09 08:59:05;;;;;;;9.50;5.63;;;;;;;33.52;26.17;99916.66;5106103;28;20075;-29
2022/08/09 09:01:31;;;;;;;9.30;5.38;;;;;;;33.41;25.92;99911.00;5087118;28;20118;-32
2022/08/09 09:03:57;;;;;;;9.38;5.07;;;;;;;33.51;25.60;99912.31;5087485;28;20030;-32
2022/08/09 09:06:23;;;;;;;8.82;5.00;;;;;;;33.20;27.08;99938.38;5087502;28;20027;-32
2022/08/09 09:08:50;;;;;;;9.02;4.22;;;;;;;32.92;25.66;99911.19;5087637;28;20696;-29
2022/08/09 09:11:15;;;;;;;8.13;4.00;;;;;;;33.03;25.86;99918.41;5105943;28;20031;-28
2022/08/09 09:13:43;;;;;;;5.47;3.72;;;;;;;33.27;24.47;99899.00;5105560;28;20475;-32
2022/08/09 09:16:09;;;;;;;13.57;5.50;;;;;;;33.57;25.21;99908.03;5106174;28;20036;-32
2022/08/09 09:18:34;;;;;;;5.68;4.10;;;;;;;33.53;25.82;99898.91;5105923;28;20034;-30
2022/08/09 09:21:00;;;;;;;6.38;3.40;;;;;;;33.43;24.82;99905.13;5105922;28;20038;-31
2022/08/09 09:23:44;;;;;;;6.60;4.28;;;;;;;33.85;26.51;99906.75;5106071;28;20466;-32
2022/08/09 09:26:12;;;;;;;7.70;4.55;;;;;;;34.02;25.38;99892.28;5106373;28;20035;-32
2022/08/09 09:28:42;;;;;;;;;;;;;;;34.10;24.54;99911.69;5105992;28;20024;-31
2022/08/09 09:31:12;;;;;;;8.88;4.90;;;;;;;34.22;24.49;99931.63;5086948;28;19912;-30
2022/08/09 09:33:37;;;;;;;8.45;4.47;;;;;;;34.36;23.87;99897.69;5086937;28;20765;-28
2022/08/09 09:36:06;;;;;;;6.15;3.80;;;;;;;34.52;23.89;99918.78;5105749;28;20023;-32
2022/08/09 09:38:41;;;;;;;8.18;3.08;;;;;;;34.59;23.25;99918.81;5087115;28;20035;-29
2022/08/09 09:41:07;;;;;;;6.63;2.90;;;;;;;34.11;23.54;99907.78;5106015;28;20089;-31
2022/08/09 09:43:33;;;;;;;7.35;2.70;;;;;;;33.72;22.33;99919.28;5109460;28;20024;-29
2022/08/09 09:46:01;;;;;;;7.72;3.20;;;;;;;33.71;22.33;99903.84;5109459;28;20047;-30
2022/08/09 09:48:31;;;;;;;6.40;2.97;;;;;;;33.85;22.14;99909.50;5091287;28;20597;-30
2022/08/09 09:50:57;;;;;;;3.95;2.30;;;;;;;33.93;21.82;99900.09;5091469;28;20024;-28
2022/08/09 09:53:24;;;;;;;6.45;2.35;;;;;;;34.24;21.41;99917.38;5109671;28;20551;-33
2022/08/09 09:55:56;;;;;;;7.30;2.55;;;;;;;34.58;19.97;99914.47;5091415;28;20120;-30
2022/08/09 09:58:23;;;;;;;6.22;2.10;;;;;;;34.86;19.48;99913.06;5109656;28;20088;-34
2022/08/09 10:00:51;;;;;;;12.15;3.00;;;;;;;35.08;20.46;99920.28;5091611;28;20031;-31
2022/08/09 10:03:17;;;;;;;3.25;1.70;;;;;;;34.59;20.63;99913.28;5091432;28;20452;-31
2022/08/09 10:06:01;;;;;;;7.13;2.08;;;;;;;34.49;19.95;99902.94;5091136;28;20822;-32
2022/08/09 10:08:26;;;;;;;12.13;3.42;;;;;;;34.96;20.22;99904.00;5109388;28;20152;-35
2022/08/09 10:10:51;;;;;;;7.78;2.30;;;;;;;35.22;20.09;99916.81;5109067;28;20093;-29
2022/08/09 10:13:17;;;;;;;7.53;2.30;;;;;;;35.33;19.37;99909.34;5109462;28;20062;-36
2022/08/09 10:15:50;;;;;;;7.45;2.20;;;;;;;35.00;19.61;99910.38;5090689;28;20100;-31
2022/08/09 10:18:17;;;;;;;4.13;2.20;;;;;;;35.33;19.91;99914.09;5090740;28;20128;-30
2022/08/09 10:20:43;;;;;;;4.37;1.93;;;;;;;35.54;19.12;99903.06;5090707;28;20047;-33
2022/08/09 10:23:21;;;;;;;7.82;2.53;;;;;;;35.74;19.06;99913.84;5090584;28;20031;-30
2022/08/09 10:25:48;;;;;;;5.13;1.77;;;;;;;35.65;19.58;99908.66;5108484;28;20457;-31
2022/08/09 10:28:14;;;;;;;;;;;;;;;36.43;18.92;99911.88;5091038;28;20032;-31
2022/08/09 10:30:40;;;;;;;4.47;2.00;;;;;;;35.77;19.29;99916.59;5109020;28;19916;-29
2022/08/09 10:33:07;;;;;;;4.18;1.88;;;;;;;35.88;18.24;99902.75;5090455;28;20024;-31
2022/08/09 10:35:34;;;;;;;3.95;2.15;;;;;;;35.77;18.25;99908.28;5090119;28;20035;-29
2022/08/09 10:38:02;;;;;;;7.43;2.05;;;;;;;36.44;19.74;99903.16;5108682;28;20475;-33
2022/08/09 10:40:28;;;;;;;5.07;1.95;;;;;;;36.95;18.57;99914.97;5090461;28;20031;-29
2022/08/09 10:42:54;;;;;;;5.60;1.77;;;;;;;36.68;18.62;99884.88;5108958;28;20090;-29
2022/08/09 10:45:21;;;;;;;4.70;1.60;;;;;;;36.67;19.00;99907.50;5108378;28;20517;-32
2022/08/09 10:47:56;;;;;;;3.20;1.60;;;;;;;36.27;18.38;99896.44;5090342;28;20032;-33
2022/08/09 10:51:05;;;;;;;5.68;1.80;;;;;;;36.68;18.31;99901.56;5090144;28;20026;-30
2022/08/09 10:53:50;;;;;;;5.40;2.05;;;;;;;36.94;17.84;99907.81;5107702;28;20040;-34
2022/08/09 10:56:22;;;;;;;5.47;2.22;;;;;;;36.86;17.84;99906.25;5108584;28;20484;-32
2022/08/09 10:58:48;;;;;;;3.75;1.55;;;;;;;36.05;17.48;99898.41;5089753;28;20019;-33
2022/08/09 11:01:32;;;;;;;3.63;1.80;;;;;;;35.61;18.53;99897.53;5090217;28;20023;-31
2022/08/09 11:04:13;;;;;;;7.00;1.80;;;;;;;36.43;18.84;99890.44;5108292;28;20038;-31
2022/08/09 11:06:43;;;;;;;5.72;1.65;;;;;;;36.71;17.86;99888.84;5108613;28;20038;-34
2022/08/09 11:09:10;;;;;;;5.35;2.03;;;;;;;36.98;17.13;99891.91;5090099;28;20024;-35
2022/08/09 11:11:57;;;;;;;4.70;1.73;;;;;;;36.81;17.68;99888.00;5108563;28;20038;-31
2022/08/09 11:14:34;;;;;;;3.92;1.67;;;;;;;36.08;18.17;99885.69;5089945;28;20055;-29
2022/08/09 11:17:01;;;;;;;6.13;1.75;;;;;;;36.38;18.31;99872.22;5089776;28;20059;-33
2022/08/09 11:19:45;;;;;;;;;;;;;;;36.14;17.78;99893.25;5089677;28;20097;-33
2022/08/09 11:22:10;;;;;;;4.85;1.67;;;;;;;36.04;18.71;99893.25;5108366;28;19907;-32
2022/08/09 11:25:03;;;;;;;3.08;1.60;;;;;;;35.95;18.57;99883.31;5107919;28;20031;-29
2022/08/09 11:27:37;;;;;;;2.95;1.52;;;;;;;35.80;18.57;99876.19;5089220;28;20072;-33